createdAt,value
2022-12-31T00:02:32.257Z,11.10
2022-12-31T00:06:22.403Z,11.10
2022-12-31T00:10:04.918Z,11.20
2022-12-31T00:13:47.332Z,11.20
2022-12-31T00:17:29.787Z,11.20
2022-12-31T00:21:12.024Z,11.20
2022-12-31T00:24:53.826Z,11.20
2022-12-31T00:28:36.883Z,11.20
2022-12-31T00:32:18.635Z,11.10
2022-12-31T00:36:09.243Z,11.10
2022-12-31T00:39:51.004Z,11.10
2022-12-31T00:43:33.589Z,11.10
2022-12-31T00:47:15.396Z,11.10
2022-12-31T00:50:57.648Z,11.10
2022-12-31T00:54:39.530Z,11.10
2022-12-31T00:58:21.264Z,11.10
2022-12-31T01:02:03.191Z,11.10
2022-12-31T01:05:45.049Z,11.10
2022-12-31T01:09:27.333Z,11.10
2022-12-31T01:13:09.322Z,11.10
2022-12-31T01:16:54.020Z,11.10
2022-12-31T01:20:41.413Z,11.00
2022-12-31T01:24:23.846Z,11.00
2022-12-31T01:28:06.544Z,11.00
2022-12-31T01:31:48.288Z,11.00
2022-12-31T01:35:30.026Z,11.00
2022-12-31T01:39:12.860Z,11.00
2022-12-31T01:42:56.267Z,11.00
2022-12-31T01:46:52.820Z,11.00
2022-12-31T01:50:38.955Z,10.90
2022-12-31T01:54:22.954Z,10.90
2022-12-31T01:58:21.100Z,10.90
2022-12-31T02:02:04.140Z,10.90
2022-12-31T02:06:13.583Z,10.90
2022-12-31T02:09:55.356Z,10.80
2022-12-31T02:13:37.113Z,10.80
2022-12-31T02:17:45.884Z,10.90
2022-12-31T02:21:39.597Z,10.80
2022-12-31T02:25:56.365Z,10.80
2022-12-31T02:29:56.633Z,10.80
2022-12-31T02:33:48.412Z,10.80
2022-12-31T02:37:33.092Z,10.80
2022-12-31T02:41:36.842Z,10.80
2022-12-31T02:45:26.936Z,10.80
2022-12-31T02:49:53.623Z,10.80
2022-12-31T02:53:35.222Z,10.90
2022-12-31T02:57:42.972Z,10.90
2022-12-31T03:01:46.483Z,10.90
2022-12-31T03:05:29.794Z,11.00
2022-12-31T03:09:14.426Z,11.10
2022-12-31T03:12:56.060Z,11.10
2022-12-31T03:16:37.688Z,11.20
2022-12-31T03:20:38.140Z,11.20
2022-12-31T03:24:38.266Z,11.30
2022-12-31T03:28:21.131Z,11.30
2022-12-31T03:32:02.865Z,11.40
2022-12-31T03:35:45.358Z,11.40
2022-12-31T03:39:27.054Z,11.50
2022-12-31T03:43:09.085Z,11.50
2022-12-31T03:46:50.766Z,11.60
2022-12-31T03:50:32.673Z,11.70
2022-12-31T03:54:14.417Z,11.70
2022-12-31T03:57:56.127Z,11.80
2022-12-31T04:01:38.704Z,11.90
2022-12-31T04:05:20.840Z,12.00
2022-12-31T04:09:02.556Z,12.20
2022-12-31T04:12:44.342Z,12.30
2022-12-31T04:16:26.150Z,12.30
2022-12-31T04:20:08.219Z,12.40
2022-12-31T04:23:49.854Z,12.40
2022-12-31T04:27:31.483Z,12.50
2022-12-31T04:31:13.198Z,12.50
2022-12-31T04:34:54.862Z,12.50
2022-12-31T04:38:36.528Z,12.60
2022-12-31T04:42:18.259Z,12.60
2022-12-31T04:45:59.989Z,12.70
2022-12-31T04:49:41.685Z,12.70
2022-12-31T04:53:24.566Z,12.70
2022-12-31T04:57:06.398Z,12.80
2022-12-31T05:00:50.085Z,12.80
2022-12-31T05:04:31.900Z,12.80
2022-12-31T05:08:13.975Z,12.90
2022-12-31T05:11:55.683Z,12.90
2022-12-31T05:15:37.477Z,12.90
2022-12-31T05:19:19.117Z,12.90
2022-12-31T05:23:00.930Z,12.90
2022-12-31T05:26:42.568Z,12.90
2022-12-31T05:30:24.440Z,12.90
2022-12-31T05:34:06.077Z,12.90
2022-12-31T05:37:47.752Z,12.90
2022-12-31T05:41:29.359Z,12.90
2022-12-31T05:45:13.483Z,12.90
2022-12-31T05:48:55.114Z,12.90
2022-12-31T05:52:37.498Z,13.00
2022-12-31T05:56:20.537Z,13.00
2022-12-31T06:00:02.275Z,13.00
2022-12-31T06:03:43.974Z,13.00
2022-12-31T06:07:25.697Z,13.00
2022-12-31T06:11:07.375Z,13.00
2022-12-31T06:14:49.022Z,13.00
2022-12-31T06:18:30.645Z,13.00
2022-12-31T06:22:12.265Z,13.00
2022-12-31T06:25:53.899Z,13.10
2022-12-31T06:29:35.556Z,13.10
2022-12-31T06:33:17.186Z,13.00
2022-12-31T06:36:59.350Z,13.10
2022-12-31T06:40:40.986Z,13.00
2022-12-31T06:44:22.817Z,13.00
2022-12-31T06:48:04.541Z,13.00
2022-12-31T06:51:47.715Z,13.00
2022-12-31T06:55:29.550Z,13.00
2022-12-31T06:59:22.235Z,13.00
2022-12-31T07:03:06.759Z,13.00
2022-12-31T07:07:06.994Z,13.10
2022-12-31T07:11:04.421Z,13.10
2022-12-31T07:15:02.137Z,13.10
2022-12-31T07:18:49.252Z,13.00
2022-12-31T07:22:31.059Z,13.00
2022-12-31T07:26:27.614Z,13.10
2022-12-31T07:30:12.080Z,13.10
2022-12-31T07:33:58.846Z,13.10
2022-12-31T07:37:43.562Z,13.10
2022-12-31T07:41:38.531Z,13.10
2022-12-31T07:45:35.197Z,13.10
2022-12-31T07:49:16.976Z,13.10
2022-12-31T07:52:58.844Z,13.10
2022-12-31T07:56:40.517Z,13.10
2022-12-31T08:00:22.415Z,13.20
2022-12-31T08:04:06.937Z,13.20
2022-12-31T08:08:07.265Z,13.20
2022-12-31T08:11:59.252Z,13.20
2022-12-31T08:15:41.154Z,13.30
2022-12-31T08:19:23.564Z,13.30
2022-12-31T08:23:11.191Z,13.20
2022-12-31T08:27:00.130Z,13.20
2022-12-31T08:30:53.970Z,13.20
2022-12-31T08:34:41.506Z,13.20
2022-12-31T08:38:29.264Z,13.20
2022-12-31T08:42:26.316Z,13.20
2022-12-31T08:46:15.213Z,13.20
2022-12-31T08:49:57.257Z,13.20
2022-12-31T08:53:39.004Z,13.20
2022-12-31T08:57:26.521Z,13.20
2022-12-31T09:01:08.789Z,13.20
2022-12-31T09:04:56.422Z,13.20
2022-12-31T09:08:54.726Z,13.20
2022-12-31T09:12:41.943Z,13.20
2022-12-31T09:16:23.583Z,13.10
2022-12-31T09:20:05.862Z,13.20
2022-12-31T09:23:47.597Z,13.20
2022-12-31T09:27:38.024Z,13.10
2022-12-31T09:31:32.036Z,13.20
2022-12-31T09:35:28.437Z,13.20
2022-12-31T09:39:13.060Z,13.20
2022-12-31T09:43:09.784Z,13.20
2022-12-31T09:46:51.434Z,13.20
2022-12-31T09:51:02.466Z,13.20
2022-12-31T09:54:44.112Z,13.20
2022-12-31T09:58:41.946Z,13.20
2022-12-31T10:02:52.402Z,13.20
2022-12-31T10:06:39.911Z,13.30
2022-12-31T10:10:23.589Z,13.30
2022-12-31T10:14:18.284Z,13.20
2022-12-31T10:18:02.937Z,13.30
2022-12-31T10:22:00.204Z,13.30
2022-12-31T10:25:47.674Z,13.30
2022-12-31T10:29:49.628Z,13.30
2022-12-31T10:33:38.263Z,13.30
2022-12-31T10:37:22.102Z,13.30
2022-12-31T10:41:22.371Z,13.40
2022-12-31T10:45:04.013Z,13.40
2022-12-31T10:48:45.626Z,13.30
2022-12-31T10:52:46.109Z,13.40
2022-12-31T10:56:46.081Z,13.40
2022-12-31T11:00:30.978Z,13.40
2022-12-31T11:04:28.420Z,13.50
2022-12-31T11:08:28.351Z,13.50
2022-12-31T11:12:19.122Z,13.50
2022-12-31T11:16:03.781Z,13.50
2022-12-31T11:19:57.709Z,13.60
2022-12-31T11:23:44.527Z,13.60
2022-12-31T11:27:47.703Z,13.60
2022-12-31T11:31:52.996Z,13.60
2022-12-31T11:35:41.455Z,13.70
2022-12-31T11:39:34.273Z,13.70
2022-12-31T11:43:28.108Z,13.70
2022-12-31T11:47:28.427Z,13.70
2022-12-31T11:51:19.173Z,13.70
2022-12-31T11:55:16.011Z,13.70
2022-12-31T11:58:57.784Z,13.70
2022-12-31T12:02:43.471Z,13.70
2022-12-31T12:06:27.432Z,13.70
2022-12-31T12:10:38.183Z,13.70
2022-12-31T12:14:21.420Z,13.70
2022-12-31T12:18:29.238Z,13.60
2022-12-31T12:22:12.564Z,13.70
2022-12-31T12:25:54.230Z,13.70
2022-12-31T12:29:35.888Z,13.70
2022-12-31T12:33:18.854Z,13.70
2022-12-31T12:37:00.776Z,13.70
2022-12-31T12:40:48.882Z,13.70
2022-12-31T12:44:30.862Z,13.60
2022-12-31T12:48:31.222Z,13.60
2022-12-31T12:52:16.032Z,13.60
2022-12-31T12:55:57.641Z,13.60
2022-12-31T13:00:02.486Z,13.60
2022-12-31T13:04:23.713Z,13.60
2022-12-31T13:08:10.762Z,13.60
2022-12-31T13:11:52.450Z,13.50
2022-12-31T13:15:37.783Z,13.60
2022-12-31T13:19:29.265Z,13.50
2022-12-31T13:23:10.882Z,13.50
2022-12-31T13:26:56.794Z,13.50
2022-12-31T13:30:49.013Z,13.50
2022-12-31T13:34:31.963Z,13.50
2022-12-31T13:38:17.583Z,13.50
2022-12-31T13:42:03.612Z,13.50
2022-12-31T13:45:47.703Z,13.50
2022-12-31T13:49:32.181Z,13.50
2022-12-31T13:53:16.864Z,13.50
2022-12-31T13:57:01.967Z,13.50
2022-12-31T14:00:45.412Z,13.50
2022-12-31T14:04:39.157Z,13.50
2022-12-31T14:08:20.840Z,13.50
2022-12-31T14:12:21.439Z,13.50
2022-12-31T14:16:06.228Z,13.50
2022-12-31T14:19:51.020Z,13.50
2022-12-31T14:23:32.610Z,13.50
2022-12-31T14:27:22.119Z,13.50
2022-12-31T14:31:15.885Z,13.50
2022-12-31T14:35:12.887Z,13.50
2022-12-31T14:39:00.579Z,13.50
2022-12-31T14:42:51.519Z,13.50
2022-12-31T14:46:43.134Z,13.50
2022-12-31T14:50:31.321Z,13.50
2022-12-31T14:54:28.964Z,13.50
2022-12-31T14:58:29.418Z,13.50
2022-12-31T15:02:30.130Z,13.50
2022-12-31T15:06:24.028Z,13.50
2022-12-31T15:10:24.259Z,13.50
2022-12-31T15:14:15.093Z,13.40
2022-12-31T15:18:03.851Z,13.40
2022-12-31T15:21:51.629Z,13.40
2022-12-31T15:25:40.513Z,13.40
2022-12-31T15:29:36.758Z,13.40
2022-12-31T15:33:31.333Z,13.40
2022-12-31T15:37:28.277Z,13.30
2022-12-31T15:41:36.325Z,13.40
2022-12-31T15:45:36.823Z,13.40
2022-12-31T15:49:19.275Z,13.30
2022-12-31T15:53:02.549Z,13.40
2022-12-31T15:56:47.263Z,13.30
2022-12-31T16:00:34.791Z,13.30
2022-12-31T16:04:18.531Z,13.40
2022-12-31T16:08:00.733Z,13.30
2022-12-31T16:11:44.499Z,13.30
2022-12-31T16:15:27.941Z,13.30
2022-12-31T16:19:38.681Z,13.40
2022-12-31T16:23:20.402Z,13.40
2022-12-31T16:27:06.583Z,13.40
2022-12-31T16:30:57.060Z,13.40
2022-12-31T16:34:38.895Z,13.40
2022-12-31T16:38:20.648Z,13.40
2022-12-31T16:42:28.330Z,13.40
2022-12-31T16:46:19.021Z,13.40
2022-12-31T16:50:17.782Z,13.40
2022-12-31T16:54:01.357Z,13.40
2022-12-31T16:57:44.384Z,13.50
2022-12-31T17:01:28.342Z,13.40
2022-12-31T17:05:28.697Z,13.40
2022-12-31T17:09:13.944Z,13.40
2022-12-31T17:17:04.187Z,13.30
2022-12-31T17:20:46.325Z,13.30
2022-12-31T17:24:28.111Z,13.20
2022-12-31T17:28:22.141Z,13.20
2022-12-31T17:32:25.379Z,13.20
2022-12-31T17:36:15.274Z,13.20
2022-12-31T17:40:40.987Z,13.10
2022-12-31T17:44:06.014Z,13.00
2022-12-31T17:47:52.509Z,13.00
2022-12-31T17:51:34.214Z,13.00
2022-12-31T17:55:15.995Z,13.00
2022-12-31T17:58:57.622Z,13.00
2022-12-31T18:02:39.336Z,13.00
2022-12-31T18:06:21.075Z,12.90
2022-12-31T18:10:02.747Z,12.90
2022-12-31T18:13:44.640Z,12.80
2022-12-31T18:17:26.679Z,12.80
2022-12-31T18:21:13.483Z,12.80
2022-12-31T18:24:55.198Z,12.80
2022-12-31T18:28:36.898Z,12.80
2022-12-31T18:32:29.084Z,12.80
2022-12-31T18:36:14.601Z,12.80
2022-12-31T18:39:56.242Z,12.70
2022-12-31T18:43:37.891Z,12.70
2022-12-31T18:47:23.183Z,12.80
2022-12-31T18:51:04.891Z,12.70
2022-12-31T18:54:46.584Z,12.80
2022-12-31T18:58:28.258Z,12.70
2022-12-31T19:02:15.276Z,12.70
2022-12-31T19:05:57.000Z,12.70
2022-12-31T19:09:47.209Z,12.70
2022-12-31T19:13:30.007Z,12.70
2022-12-31T19:17:11.652Z,12.60
2022-12-31T19:20:53.341Z,12.70
2022-12-31T19:24:35.033Z,12.70
2022-12-31T19:28:16.995Z,12.60
2022-12-31T19:32:01.151Z,12.60
2022-12-31T19:35:43.286Z,12.60
2022-12-31T19:39:24.956Z,12.60
2022-12-31T19:43:11.078Z,12.50
2022-12-31T19:46:52.758Z,12.60
2022-12-31T19:50:34.585Z,12.50
2022-12-31T19:54:16.267Z,12.50
2022-12-31T19:57:57.915Z,12.50
2022-12-31T20:01:39.674Z,12.50
2022-12-31T20:05:21.429Z,12.50
2022-12-31T20:09:03.356Z,12.50
2022-12-31T20:12:45.026Z,12.40
2022-12-31T20:16:27.053Z,12.40
2022-12-31T20:20:09.103Z,12.50
2022-12-31T20:23:51.581Z,12.40
2022-12-31T20:27:33.576Z,12.40
2022-12-31T20:31:16.908Z,12.40
2022-12-31T20:34:58.643Z,12.40
2022-12-31T20:38:40.363Z,12.40
2022-12-31T20:42:21.993Z,12.30
2022-12-31T20:46:14.781Z,12.30
2022-12-31T20:50:13.114Z,12.20
2022-12-31T20:53:56.362Z,12.20
2022-12-31T20:57:38.049Z,12.20
2022-12-31T21:01:20.325Z,12.20
2022-12-31T21:05:02.187Z,12.10
2022-12-31T21:08:44.151Z,12.10
2022-12-31T21:12:43.832Z,12.10
2022-12-31T21:16:26.036Z,12.20
2022-12-31T21:20:08.165Z,12.10
2022-12-31T21:23:50.260Z,12.20
2022-12-31T21:27:31.891Z,12.10
2022-12-31T21:31:14.521Z,12.10
2022-12-31T21:35:39.729Z,12.10
2022-12-31T21:38:57.865Z,12.10
2022-12-31T21:42:39.482Z,12.10
2022-12-31T21:46:21.197Z,12.10
2022-12-31T21:50:02.889Z,12.10
2022-12-31T21:53:44.616Z,12.00
2022-12-31T21:57:26.259Z,12.00
2022-12-31T22:01:28.289Z,12.00
2022-12-31T22:05:18.527Z,11.90
2022-12-31T22:09:03.422Z,11.90
2022-12-31T22:12:45.353Z,11.90
2022-12-31T22:16:27.064Z,11.90
2022-12-31T22:20:26.371Z,11.90
2022-12-31T22:24:09.315Z,11.80
2022-12-31T22:28:27.461Z,11.80
2022-12-31T22:31:56.743Z,11.80
2022-12-31T22:35:41.146Z,11.70
2022-12-31T22:39:44.684Z,11.70
2022-12-31T22:43:25.056Z,11.60
2022-12-31T22:47:06.688Z,11.60
2022-12-31T22:50:54.976Z,11.50
2022-12-31T22:54:36.607Z,11.40
2022-12-31T22:58:19.835Z,11.30
2022-12-31T23:02:01.578Z,11.30
2022-12-31T23:05:43.546Z,11.40
2022-12-31T23:09:44.445Z,11.40
2022-12-31T23:13:50.881Z,11.30
2022-12-31T23:17:51.575Z,11.30
2022-12-31T23:21:51.690Z,11.30
2022-12-31T23:25:34.179Z,11.30
2022-12-31T23:29:15.834Z,11.30
2022-12-31T23:32:57.514Z,11.30
2022-12-31T23:36:39.396Z,11.30
2022-12-31T23:40:22.052Z,11.20
2022-12-31T23:44:03.890Z,11.10
2022-12-31T23:47:45.644Z,11.10
2022-12-31T23:51:27.312Z,11.00
2022-12-31T23:55:09.115Z,11.00
2022-12-31T23:58:55.173Z,11.10
